Time;durP1;ratioP1;P1;durP2;ratioP2;P2;SDS_P1;SDS_P2;PMS_P1;PMS_P2;Temp;Humidity;BMP_temperature;BMP_pressure;BME280_temperature;BME280_humidity;BME280_pressure;Samples;Min_cycle;Max_cycle;Signal;HPM_P1;HPM_P2
2022/10/05 00:01:22;;;;;;;5.65;1.17;;;;;;;11.09;73.95;99725.22;5122614;27;20043;-51
2022/10/05 00:04:24;;;;;;;2.70;1.13;;;;;;;11.18;73.71;99726.47;5096287;27;20100;-51
2022/10/05 00:07:14;;;;;;;;;;;;;;;11.18;73.74;99721.22;5102102;27;20040;-50
2022/10/05 00:09:59;;;;;;;3.97;1.42;;;;;;;11.19;73.65;99717.69;5103521;27;19915;-50
2022/10/05 00:12:45;;;;;;;3.33;1.10;;;;;;;11.19;73.46;99733.44;5091594;28;20036;-46
2022/10/05 00:15:30;;;;;;;2.08;1.30;;;;;;;11.25;73.41;99734.00;5100845;27;20056;-47
2022/10/05 00:18:20;;;;;;;3.20;1.27;;;;;;;11.24;73.33;99732.31;5097672;27;20144;-51
2022/10/05 00:21:25;;;;;;;2.45;1.02;;;;;;;11.24;73.15;99727.06;5094430;28;20068;-47
2022/10/05 00:24:10;;;;;;;1.92;1.08;;;;;;;11.30;73.28;99735.44;5108422;27;20040;-49
2022/10/05 00:26:54;;;;;;;1.58;1.02;;;;;;;11.20;73.80;99727.25;5113267;27;20042;-49
2022/10/05 00:29:39;;;;;;;2.35;1.30;;;;;;;11.16;73.47;99736.19;5094329;28;20043;-50
2022/10/05 00:32:23;;;;;;;1.55;1.10;;;;;;;11.14;73.82;99732.84;5110367;27;20039;-48
2022/10/05 00:35:09;;;;;;;2.92;1.20;;;;;;;11.17;73.58;99727.41;5092429;28;20043;-48
2022/10/05 00:37:54;;;;;;;3.55;1.30;;;;;;;11.18;73.78;99730.91;5093442;27;20051;-48
2022/10/05 00:40:53;;;;;;;2.00;0.80;;;;;;;11.20;73.55;99729.00;5100526;28;20093;-47
2022/10/05 00:44:11;;;;;;;3.22;1.05;;;;;;;11.21;73.52;99731.53;5117463;27;20059;-51
2022/10/05 00:47:09;;;;;;;2.95;1.20;;;;;;;11.28;73.25;99728.56;5091208;28;20075;-52
2022/10/05 00:49:54;;;;;;;3.08;1.20;;;;;;;11.29;73.48;99727.66;5096809;27;20155;-50
2022/10/05 00:53:03;;;;;;;1.30;1.02;;;;;;;11.27;73.60;99726.88;5099346;27;20130;-46
2022/10/05 00:56:08;;;;;;;2.05;0.93;;;;;;;11.26;73.72;99728.66;5109635;28;20741;-48
2022/10/05 00:59:05;;;;;;;2.13;1.30;;;;;;;11.26;73.97;99723.41;5100451;28;20046;-49
2022/10/05 01:01:50;;;;;;;3.58;1.30;;;;;;;11.16;74.54;99719.63;5102074;28;20046;-52
2022/10/05 01:04:58;;;;;;;2.80;1.65;;;;;;;11.03;75.57;99724.72;5101570;28;20088;-48
2022/10/05 01:08:07;;;;;;;3.28;1.35;;;;;;;11.07;75.61;99718.34;5098256;27;20036;-48
2022/10/05 01:11:06;;;;;;;4.75;1.48;;;;;;;11.04;75.93;99721.16;5113419;27;20039;-51
2022/10/05 01:14:19;;;;;;;3.10;1.35;;;;;;;11.08;75.93;99723.50;5118970;27;20048;-49
2022/10/05 01:17:15;;;;;;;3.08;1.65;;;;;;;11.09;75.68;99727.00;5119146;27;20038;-49
2022/10/05 01:20:17;;;;;;;2.17;1.30;;;;;;;10.98;76.50;99726.75;5100353;27;20047;-52
2022/10/05 01:23:07;;;;;;;3.30;1.80;;;;;;;10.94;76.80;99724.28;5102768;27;20106;-46
2022/10/05 01:25:57;;;;;;;3.95;1.75;;;;;;;10.79;77.62;99720.72;5095613;28;20058;-48
2022/10/05 01:29:21;;;;;;;2.47;1.67;;;;;;;10.93;77.48;99724.38;5102311;27;20040;-51
2022/10/05 01:32:24;;;;;;;3.55;1.48;;;;;;;10.87;77.76;99727.34;5097360;27;20071;-49
2022/10/05 01:35:12;;;;;;;2.80;1.40;;;;;;;10.95;77.34;99731.22;5112300;27;20138;-47
2022/10/05 01:38:11;;;;;;;2.78;1.63;;;;;;;10.89;77.71;99731.56;5106352;27;20040;-49
2022/10/05 01:41:07;;;;;;;5.40;1.80;;;;;;;10.83;78.32;99731.91;5105215;27;20401;-48
2022/10/05 01:44:05;;;;;;;4.82;2.00;;;;;;;10.77;78.74;99730.44;5108781;27;20486;-50
2022/10/05 01:47:13;;;;;;;3.83;1.90;;;;;;;10.70;79.14;99722.09;5116805;27;20212;-51
2022/10/05 01:50:06;;;;;;;3.55;1.95;;;;;;;10.74;79.22;99708.81;5102156;27;20059;-49
2022/10/05 01:53:03;;;;;;;3.88;2.05;;;;;;;10.68;79.63;99702.13;5110395;27;20495;-48
2022/10/05 01:56:06;;;;;;;5.30;2.70;;;;;;;10.41;81.29;99700.03;5105026;28;20032;-48
2022/10/05 01:59:06;;;;;;;7.03;3.58;;;;;;;10.17;82.68;99695.97;5110748;27;20122;-50
2022/10/05 02:01:59;;;;;;;5.05;2.92;;;;;;;10.20;83.13;99681.91;5110195;27;20031;-52
2022/10/05 02:04:50;;;;;;;3.88;3.08;;;;;;;10.17;83.46;99689.88;5111084;27;20106;-46
2022/10/05 02:07:55;;;;;;;6.35;3.80;;;;;;;10.13;83.53;99677.91;5105013;27;20054;-50
2022/10/05 02:10:51;;;;;;;4.88;3.28;;;;;;;9.83;85.32;99680.25;5103558;27;20041;-50
2022/10/05 02:13:48;;;;;;;5.70;3.72;;;;;;;9.71;86.31;99684.31;5115266;27;20138;-49
2022/10/05 02:16:33;;;;;;;6.93;4.00;;;;;;;9.45;87.58;99668.16;5121162;27;20122;-51
2022/10/05 02:19:37;;;;;;;7.13;3.90;;;;;;;9.59;87.85;99675.34;5102131;27;20051;-51
2022/10/05 02:22:31;;;;;;;6.57;4.13;;;;;;;9.36;88.58;99664.25;5114863;27;20395;-51
2022/10/05 02:25:20;;;;;;;6.57;3.90;;;;;;;9.20;90.08;99665.91;5120346;27;20043;-52
2022/10/05 02:28:19;;;;;;;7.25;4.55;;;;;;;9.20;89.96;99661.53;5102232;27;20460;-51
2022/10/05 02:31:28;;;;;;;6.90;4.72;;;;;;;9.09;90.32;99669.88;5110898;27;20035;-51
2022/10/05 02:34:36;;;;;;;5.50;3.90;;;;;;;8.93;91.66;99672.38;5119113;27;20054;-51
2022/10/05 02:37:30;;;;;;;7.85;4.35;;;;;;;9.03;91.30;99670.19;5113518;27;20205;-50
2022/10/05 02:40:27;;;;;;;4.70;3.80;;;;;;;9.26;90.80;99668.22;5097046;27;20028;-50
2022/10/05 02:43:33;;;;;;;5.68;4.05;;;;;;;9.33;89.66;99671.38;5080647;28;20085;-54
2022/10/05 02:47:04;;;;;;;7.72;4.43;;;;;;;9.04;91.61;99676.25;5088022;27;20073;-48
2022/10/05 02:50:29;;;;;;;5.20;3.75;;;;;;;8.98;92.29;99672.16;4991960;28;20073;-48
2022/10/05 02:53:25;;;;;;;7.00;4.40;;;;;;;8.90;93.07;99669.91;5008040;28;20541;-51
2022/10/05 02:56:24;;;;;;;6.70;4.40;;;;;;;8.94;92.97;99668.00;5014388;28;20041;-51
2022/10/05 02:59:15;;;;;;;7.15;4.63;;;;;;;8.70;94.57;99673.47;4992919;28;20049;-49
2022/10/05 03:02:11;;;;;;;8.18;4.15;;;;;;;8.71;96.27;99669.94;4977057;28;20085;-52
2022/10/05 03:05:22;;;;;;;7.07;4.32;;;;;;;8.78;96.19;99668.72;5000691;28;20070;-46
2022/10/05 03:08:14;;;;;;;8.03;4.87;;;;;;;8.83;95.39;99673.75;4969160;28;20423;-49
2022/10/05 03:11:18;;;;;;;6.90;4.32;;;;;;;8.75;95.64;99666.25;4973435;28;20084;-46
2022/10/05 03:14:17;;;;;;;7.50;4.47;;;;;;;8.84;95.55;99673.69;4963469;28;20492;-46
2022/10/05 03:17:24;;;;;;;7.80;4.43;;;;;;;8.65;96.73;99667.63;4969780;28;20046;-50
2022/10/05 03:20:34;;;;;;;7.05;4.50;;;;;;;8.58;97.68;99667.03;4974094;28;20149;-51
2022/10/05 03:23:39;;;;;;;8.95;4.88;;;;;;;8.52;98.35;99657.69;4955781;28;20128;-51
2022/10/05 03:26:50;;;;;;;6.80;4.10;;;;;;;8.56;98.78;99659.28;5009484;28;20120;-51
2022/10/05 03:29:56;;;;;;;7.68;4.82;;;;;;;8.50;98.87;99651.69;5056066;28;20063;-49
2022/10/05 03:32:53;;;;;;;8.15;5.63;;;;;;;8.44;99.80;99652.81;5040727;28;20048;-49
2022/10/05 03:35:50;;;;;;;13.18;6.47;;;;;;;8.34;100.00;99652.38;5056552;28;20096;-47
2022/10/05 03:38:38;;;;;;;9.35;6.00;;;;;;;8.29;100.00;99653.53;5045038;28;20087;-50
2022/10/05 03:41:55;;;;;;;10.05;6.70;;;;;;;8.17;100.00;99653.16;5051329;28;20053;-50
2022/10/05 03:44:53;;;;;;;11.70;6.70;;;;;;;8.32;100.00;99653.38;5071804;28;20048;-51
2022/10/05 03:47:47;;;;;;;12.32;7.07;;;;;;;8.24;100.00;99657.16;5103940;27;20047;-47
2022/10/05 03:50:43;;;;;;;8.77;6.25;;;;;;;8.24;100.00;99653.72;5103139;27;20043;-50
2022/10/05 03:53:40;;;;;;;12.95;6.35;;;;;;;8.18;100.00;99649.63;5113931;27;20135;-49
2022/10/05 03:56:53;;;;;;;7.32;5.22;;;;;;;9.92;97.46;99647.50;5112227;27;20050;-53
2022/10/05 03:59:45;;;;;;;9.05;5.60;;;;;;;8.71;99.01;99649.91;5115703;27;20130;-52
2022/10/05 04:02:42;;;;;;;7.25;5.20;;;;;;;8.46;100.00;99645.75;5106292;27;20050;-50
2022/10/05 04:05:34;;;;;;;8.20;5.43;;;;;;;8.30;100.00;99639.53;5107967;27;20110;-52
2022/10/05 04:08:46;;;;;;;8.30;5.65;;;;;;;8.13;100.00;99636.78;5107666;27;20062;-52
2022/10/05 04:11:34;;;;;;;;;;;;;;;8.21;100.00;99632.97;5111405;27;20050;-50
2022/10/05 04:14:27;;;;;;;9.98;5.82;;;;;;;8.13;100.00;99628.09;5124356;27;19920;-53
2022/10/05 04:17:16;;;;;;;8.70;5.63;;;;;;;8.24;100.00;99633.66;5105087;27;20498;-50
2022/10/05 04:20:26;;;;;;;10.35;5.90;;;;;;;8.24;100.00;99625.00;5105946;27;20044;-50
2022/10/05 04:23:23;;;;;;;11.70;7.07;;;;;;;8.20;100.00;99616.47;5105346;27;20044;-53
2022/10/05 04:26:17;;;;;;;13.00;7.88;;;;;;;8.01;100.00;99612.06;5097851;27;20074;-48
2022/10/05 04:29:24;;;;;;;11.48;7.47;;;;;;;8.11;100.00;99616.88;5126051;27;20089;-50
2022/10/05 04:32:15;;;;;;;10.02;7.13;;;;;;;8.20;100.00;99615.59;5099213;28;20035;-50
2022/10/05 04:35:29;;;;;;;15.45;8.32;;;;;;;8.29;100.00;99615.19;5112152;27;20130;-49
2022/10/05 04:38:51;;;;;;;13.57;8.82;;;;;;;8.33;100.00;99615.91;5102637;27;20686;-52
2022/10/05 04:42:25;;;;;;;15.93;7.90;;;;;;;8.19;100.00;99617.38;5120661;27;20130;-50
2022/10/05 04:45:50;;;;;;;13.98;8.50;;;;;;;8.31;100.00;99620.34;5056230;28;20041;-48
2022/10/05 04:48:47;;;;;;;13.00;8.40;;;;;;;8.25;100.00;99624.09;5037655;28;20040;-51
2022/10/05 04:51:59;;;;;;;12.88;8.48;;;;;;;8.24;100.00;99635.44;5039379;28;20630;-49
2022/10/05 04:55:08;;;;;;;12.35;7.80;;;;;;;8.41;99.92;99639.91;5034607;28;20124;-49
2022/10/05 04:58:04;;;;;;;12.63;7.88;;;;;;;8.33;100.00;99644.63;5038451;28;20044;-49
2022/10/05 05:01:15;;;;;;;14.70;7.88;;;;;;;8.34;100.00;99641.09;5019917;28;20403;-52
2022/10/05 05:04:08;;;;;;;12.88;7.72;;;;;;;8.34;100.00;99655.00;5029844;28;20060;-53
2022/10/05 05:06:55;;;;;;;12.65;7.57;;;;;;;8.43;100.00;99645.91;5050154;28;20071;-51
2022/10/05 05:09:49;;;;;;;13.05;7.10;;;;;;;8.66;98.59;99662.31;5044592;28;20053;-54
2022/10/05 05:13:25;;;;;;;9.75;6.78;;;;;;;8.49;99.07;99660.44;5048972;28;20113;-53
2022/10/05 05:16:32;;;;;;;13.95;7.47;;;;;;;8.57;99.45;99679.25;4962066;28;20047;-51
2022/10/05 05:19:37;;;;;;;14.85;7.72;;;;;;;8.67;98.12;99686.66;4998880;28;20052;-55
2022/10/05 05:22:37;;;;;;;15.88;8.90;;;;;;;8.47;99.75;99683.19;5017293;28;20570;-52
2022/10/05 05:25:41;;;;;;;15.85;8.93;;;;;;;8.46;99.96;99686.69;4997284;28;20113;-53
2022/10/05 05:28:39;;;;;;;15.38;9.60;;;;;;;8.50;99.96;99696.09;5010363;28;20088;-50
2022/10/05 05:31:30;;;;;;;17.92;9.88;;;;;;;8.34;100.00;99690.72;5016454;28;20671;-52
2022/10/05 05:35:02;;;;;;;17.73;10.10;;;;;;;8.23;100.00;99694.63;5010620;28;20065;-50
2022/10/05 05:38:15;;;;;;;19.77;10.00;;;;;;;8.33;100.00;99696.84;5020568;28;20136;-53
2022/10/05 05:41:10;;;;;;;21.38;11.65;;;;;;;8.61;100.00;99699.09;4945721;28;20059;-50
2022/10/05 05:44:19;;;;;;;25.67;12.10;;;;;;;8.60;99.95;99704.41;4935079;29;20123;-48
2022/10/05 05:47:37;;;;;;;23.08;10.93;;;;;;;8.49;100.00;99704.81;4932025;28;20047;-50
2022/10/05 05:50:57;;;;;;;23.67;12.88;;;;;;;8.56;100.00;99697.59;4995193;28;20083;-51
2022/10/05 05:54:21;;;;;;;22.85;11.95;;;;;;;8.75;98.51;99703.69;5023097;28;20045;-50
2022/10/05 05:57:14;;;;;;;26.63;12.77;;;;;;;8.91;97.10;99717.81;4998214;28;20129;-50
2022/10/05 06:00:04;;;;;;;20.67;12.05;;;;;;;9.10;96.13;99725.63;5005924;28;20537;-52
2022/10/05 06:03:02;;;;;;;21.45;11.00;;;;;;;9.14;95.17;99724.56;5017448;28;20057;-50
2022/10/05 06:05:51;;;;;;;21.10;11.15;;;;;;;9.28;93.96;99721.31;5012827;28;20076;-54
2022/10/05 06:08:42;;;;;;;23.40;12.05;;;;;;;9.34;93.52;99721.00;5010925;28;20073;-51
2022/10/05 06:11:55;;;;;;;20.08;11.20;;;;;;;9.39;93.31;99719.91;4984250;28;20034;-53
2022/10/05 06:14:59;;;;;;;21.35;10.35;;;;;;;9.49;92.81;99726.41;5003239;28;20046;-55
2022/10/05 06:17:51;;;;;;;23.45;12.40;;;;;;;9.38;93.33;99733.94;5045344;28;20052;-53
2022/10/05 06:21:04;;;;;;;22.00;11.82;;;;;;;9.54;92.84;99736.63;5085773;28;20044;-58
2022/10/05 06:23:51;;;;;;;;;;;;;;;10.36;90.42;99739.56;5078715;28;20041;-56
2022/10/05 06:26:57;;;;;;;21.35;10.73;;;;;;;11.37;91.07;99741.19;5067333;28;20352;-55
2022/10/05 06:29:51;;;;;;;20.00;10.82;;;;;;;10.44;87.69;99732.16;5069623;28;20044;-50
2022/10/05 06:32:58;;;;;;;22.30;12.93;;;;;;;9.98;90.24;99741.44;5083939;28;20040;-52
2022/10/05 06:36:05;;;;;;;24.40;12.05;;;;;;;10.11;89.83;99735.59;5115976;27;20044;-52
2022/10/05 06:39:08;;;;;;;21.20;10.80;;;;;;;10.30;88.77;99735.47;5100450;27;20576;-55
2022/10/05 06:42:14;;;;;;;25.17;13.23;;;;;;;10.16;89.03;99744.06;5110311;27;20039;-53
2022/10/05 06:45:51;;;;;;;26.45;13.02;;;;;;;10.43;87.40;99743.53;5111175;27;20046;-51
2022/10/05 06:49:12;;;;;;;;;;;;;;;10.76;84.93;99747.09;5107471;27;20092;-53
2022/10/05 06:52:33;;;;;;;20.88;11.45;;;;;;;11.07;82.99;99745.44;5108384;27;20322;-59
2022/10/05 06:55:37;;;;;;;17.95;10.50;;;;;;;11.24;81.32;99753.28;5104452;27;20047;-52
2022/10/05 06:58:47;;;;;;;16.90;9.43;;;;;;;11.65;80.08;99739.59;5092814;28;20067;-57
2022/10/05 07:01:32;;;;;;;17.45;8.75;;;;;;;11.77;79.21;99729.31;5131949;27;20131;-53
2022/10/05 07:04:23;;;;;;;13.18;7.85;;;;;;;12.26;76.58;99722.13;5115672;27;20047;-51
2022/10/05 07:07:17;;;;;;;11.30;5.97;;;;;;;13.18;76.28;99727.88;5106607;27;20048;-50
2022/10/05 07:10:14;;;;;;;10.13;5.72;;;;;;;14.68;65.87;99738.19;5098687;27;20083;-56
2022/10/05 07:13:21;;;;;;;13.02;5.28;;;;;;;14.66;64.97;99738.31;5099348;27;20048;-56
2022/10/05 07:16:17;;;;;;;5.88;3.85;;;;;;;14.29;65.36;99730.31;5107887;27;20074;-52
2022/10/05 07:19:35;;;;;;;6.13;3.60;;;;;;;14.12;65.71;99737.59;5099604;27;20590;-52
2022/10/05 07:22:43;;;;;;;11.35;5.90;;;;;;;13.56;68.58;99738.66;5103727;27;20054;-57
2022/10/05 07:25:51;;;;;;;11.20;5.55;;;;;;;13.92;67.51;99729.22;5105726;27;20035;-54
2022/10/05 07:28:36;;;;;;;6.50;3.88;;;;;;;15.17;63.71;99733.03;5123407;27;20070;-54
2022/10/05 07:31:32;;;;;;;5.90;3.65;;;;;;;15.44;60.49;99739.03;5096927;27;20051;-53
2022/10/05 07:34:35;;;;;;;6.40;3.45;;;;;;;15.68;59.12;99740.81;5092652;28;20039;-52
2022/10/05 07:37:54;;;;;;;6.82;4.00;;;;;;;15.15;59.17;99753.41;5115183;27;20059;-54
2022/10/05 07:40:47;;;;;;;;;;;;;;;15.87;58.95;99751.69;5110253;27;20038;-55
2022/10/05 07:43:47;;;;;;;9.10;4.15;;;;;;;15.66;57.81;99748.84;5119369;27;19919;-48
2022/10/05 07:46:50;;;;;;;7.55;4.63;;;;;;;15.39;59.33;99742.03;5098254;27;20143;-49
2022/10/05 07:49:40;;;;;;;9.93;5.38;;;;;;;16.37;57.34;99747.94;5097756;27;20052;-53
2022/10/05 07:52:38;;;;;;;10.93;5.00;;;;;;;15.56;57.75;99756.63;5110020;27;20054;-53
2022/10/05 07:55:30;;;;;;;7.95;5.03;;;;;;;15.87;58.46;99754.31;5107290;27;20095;-53
2022/10/05 07:58:26;;;;;;;8.77;5.05;;;;;;;16.94;55.17;99744.44;5109992;27;20122;-57
2022/10/05 08:01:23;;;;;;;13.75;4.95;;;;;;;16.78;55.04;99749.28;5107777;27;20036;-54
2022/10/05 08:04:20;;;;;;;8.80;4.65;;;;;;;16.98;54.23;99745.91;5104460;27;20467;-54
2022/10/05 08:07:10;;;;;;;9.73;5.50;;;;;;;16.63;55.07;99741.59;5119016;27;20040;-55
2022/10/05 08:10:04;;;;;;;8.50;5.53;;;;;;;16.29;56.23;99752.16;5109000;28;20243;-51
2022/10/05 08:13:26;;;;;;;7.10;4.53;;;;;;;17.19;52.92;99739.84;5110244;27;20035;-55
2022/10/05 08:16:11;;;;;;;6.15;3.65;;;;;;;16.58;55.18;99746.41;5103454;27;20100;-51
2022/10/05 08:19:01;;;;;;;5.53;3.67;;;;;;;17.86;51.54;99738.88;5104763;27;20040;-55
2022/10/05 08:22:28;;;;;;;6.05;3.83;;;;;;;16.73;55.28;99749.63;5106967;27;20035;-55
2022/10/05 08:25:23;;;;;;;9.15;4.63;;;;;;;15.95;57.77;99752.88;5043925;28;20407;-53
2022/10/05 08:28:25;;;;;;;9.40;4.50;;;;;;;16.32;57.32;99750.09;5042263;28;20839;-52
2022/10/05 08:31:32;;;;;;;6.10;3.92;;;;;;;16.13;58.25;99751.53;5045576;28;20526;-53
2022/10/05 08:34:54;;;;;;;6.07;4.05;;;;;;;15.15;61.17;99750.75;5043940;28;20037;-53
2022/10/05 08:37:42;;;;;;;5.47;3.83;;;;;;;14.50;64.21;99743.81;5048139;28;20691;-51
2022/10/05 08:40:55;;;;;;;6.93;4.40;;;;;;;13.87;66.19;99733.16;5037335;28;20060;-55
2022/10/05 08:44:17;;;;;;;5.95;3.92;;;;;;;14.71;64.45;99731.84;5043483;28;20052;-51
2022/10/05 08:47:36;;;;;;;5.65;3.45;;;;;;;16.19;60.20;99723.78;5047281;28;20077;-50
2022/10/05 08:50:34;;;;;;;9.75;5.50;;;;;;;16.12;59.73;99719.94;5042881;28;20047;-56
2022/10/05 08:53:40;;;;;;;7.03;4.05;;;;;;;16.69;57.47;99724.41;5043746;28;20049;-53
2022/10/05 08:56:38;;;;;;;7.20;4.00;;;;;;;16.50;59.19;99723.19;5045426;28;20097;-52
2022/10/05 08:59:25;;;;;;;7.68;3.92;;;;;;;15.85;60.50;99740.38;5048323;28;20083;-53
2022/10/05 09:02:31;;;;;;;7.32;3.47;;;;;;;16.33;59.60;99727.16;5104365;28;20059;-53
2022/10/05 09:05:29;;;;;;;7.45;3.83;;;;;;;16.52;59.47;99713.34;5112692;28;20074;-54
2022/10/05 09:08:41;;;;;;;6.70;4.10;;;;;;;17.21;58.05;99719.41;5112599;28;20066;-56
2022/10/05 09:11:36;;;;;;;6.65;3.65;;;;;;;18.75;53.40;99709.31;5097924;28;20119;-56
2022/10/05 09:14:38;;;;;;;5.50;3.13;;;;;;;18.74;52.94;99708.47;5108078;28;20043;-56
2022/10/05 09:17:42;;;;;;;8.90;3.05;;;;;;;19.05;51.62;99703.09;5101426;28;20036;-50
2022/10/05 09:20:49;;;;;;;9.23;3.08;;;;;;;19.14;51.58;99712.09;5098866;28;20085;-51
2022/10/05 09:23:41;;;;;;;4.70;2.80;;;;;;;18.57;52.86;99710.78;5106184;28;20119;-49
2022/10/05 09:27:03;;;;;;;6.10;3.30;;;;;;;19.29;51.46;99715.16;5099016;28;20048;-53
2022/10/05 09:29:51;;;;;;;4.60;3.13;;;;;;;19.51;50.56;99707.03;5110015;27;20074;-50
2022/10/05 09:32:47;;;;;;;5.50;2.92;;;;;;;19.01;53.19;99716.78;5109968;27;20040;-46
2022/10/05 09:35:55;;;;;;;3.95;2.50;;;;;;;19.90;50.12;99711.47;5101858;28;20042;-56
2022/10/05 09:38:42;;;;;;;4.20;2.65;;;;;;;19.08;52.82;99704.59;5112394;27;20474;-55
2022/10/05 09:41:54;;;;;;;5.65;2.30;;;;;;;19.70;52.38;99708.84;5101371;27;20070;-55
2022/10/05 09:44:39;;;;;;;;;;;;;;;19.78;51.17;99702.84;5113128;27;20120;-58
2022/10/05 09:48:01;;;;;;;4.68;3.00;;;;;;;19.51;53.89;99699.06;5104829;27;20008;-55
2022/10/05 09:51:09;;;;;;;7.68;2.88;;;;;;;18.92;53.68;99706.00;5110320;27;20599;-52
2022/10/05 09:54:31;;;;;;;4.00;2.60;;;;;;;18.37;56.46;99706.38;5103059;27;20120;-55
2022/10/05 09:57:33;;;;;;;4.85;2.75;;;;;;;18.96;56.33;99719.84;5108397;27;20060;-56
2022/10/05 10:00:20;;;;;;;5.75;3.28;;;;;;;18.52;57.37;99715.69;5105639;27;20107;-54
2022/10/05 10:03:45;;;;;;;6.78;3.05;;;;;;;17.98;59.55;99721.09;5115259;27;20048;-55
2022/10/05 10:06:53;;;;;;;5.95;3.35;;;;;;;17.68;60.32;99714.75;5041015;28;20136;-50
2022/10/05 10:09:43;;;;;;;4.72;3.33;;;;;;;17.60;63.93;99718.03;5056712;28;20186;-54
2022/10/05 10:12:40;;;;;;;7.40;3.00;;;;;;;18.55;59.23;99710.09;5029960;28;20170;-52
2022/10/05 10:16:02;;;;;;;5.05;2.60;;;;;;;18.97;57.05;99708.22;5044222;28;20071;-56
2022/10/05 10:19:48;;;;;;;5.03;2.90;;;;;;;19.99;58.26;99707.13;5002592;28;20463;-55
2022/10/05 10:22:51;;;;;;;6.70;3.20;;;;;;;20.46;52.13;99703.63;4916352;29;20067;-60
2022/10/05 10:25:52;;;;;;;7.50;3.65;;;;;;;19.58;55.04;99694.88;4922598;29;20436;-53
2022/10/05 10:28:53;;;;;;;3.90;2.60;;;;;;;19.86;60.40;99697.66;4923637;29;20076;-55
2022/10/05 10:31:49;;;;;;;4.75;2.92;;;;;;;19.20;55.48;99703.56;4916354;29;20064;-54
2022/10/05 10:34:55;;;;;;;4.32;2.00;;;;;;;19.04;56.52;99698.75;4914384;29;20393;-54
2022/10/05 10:38:01;;;;;;;6.32;2.38;;;;;;;19.31;57.81;99699.06;4911057;29;20060;-54
2022/10/05 10:41:25;;;;;;;3.63;2.28;;;;;;;19.68;55.94;99705.50;4910601;29;20146;-54
2022/10/05 10:44:09;;;;;;;;;;;;;;;18.19;57.50;99694.59;4941822;28;20074;-55
2022/10/05 10:47:03;;;;;;;3.60;1.15;;;;;;;18.23;57.72;99689.84;4945821;28;20451;-57
2022/10/05 10:50:05;;;;;;;3.28;1.60;;;;;;;18.61;58.06;99694.59;4940711;28;20061;-56
2022/10/05 10:52:55;;;;;;;4.03;1.40;;;;;;;18.99;56.40;99698.31;4922985;29;20095;-54
2022/10/05 10:56:07;;;;;;;2.88;1.40;;;;;;;18.25;57.12;99697.69;4941287;28;20039;-60
2022/10/05 10:59:11;;;;;;;5.63;1.77;;;;;;;18.84;56.11;99697.88;5049952;27;20558;-55
2022/10/05 11:02:02;;;;;;;1.42;1.00;;;;;;;18.76;54.63;99695.06;5116297;27;20419;-55
2022/10/05 11:05:16;;;;;;;2.88;1.08;;;;;;;18.00;57.02;99699.75;5119805;27;20714;-55
2022/10/05 11:08:05;;;;;;;3.05;1.35;;;;;;;19.11;54.12;99695.59;5109946;27;20521;-53
2022/10/05 11:11:09;;;;;;;2.10;1.00;;;;;;;19.84;51.68;99696.09;5098602;28;20063;-53
2022/10/05 11:14:22;;;;;;;2.22;1.10;;;;;;;20.58;50.83;99679.50;5110425;27;20114;-55
2022/10/05 11:17:25;;;;;;;2.92;0.90;;;;;;;21.03;49.63;99676.00;5097628;27;20359;-55
2022/10/05 11:20:15;;;;;;;3.25;1.05;;;;;;;20.34;50.16;99680.84;5109362;28;20099;-56
2022/10/05 11:23:21;;;;;;;2.60;1.27;;;;;;;20.34;50.71;99675.53;5100663;27;20133;-55
2022/10/05 11:26:36;;;;;;;2.42;1.23;;;;;;;20.09;50.38;99678.69;5107594;27;20047;-53
2022/10/05 11:29:29;;;;;;;1.63;1.00;;;;;;;20.21;51.07;99658.09;5106499;27;21189;-57
2022/10/05 11:32:29;;;;;;;3.70;1.20;;;;;;;20.27;50.62;99667.31;5105995;28;20122;-56
2022/10/05 11:35:49;;;;;;;2.03;1.10;;;;;;;20.63;49.95;99674.56;5106630;27;20044;-58
2022/10/05 11:39:01;;;;;;;5.18;0.98;;;;;;;20.13;51.12;99663.28;5036943;28;20118;-58
2022/10/05 11:41:45;;;;;;;2.25;1.17;;;;;;;19.88;52.78;99665.59;5035772;28;20053;-51
2022/10/05 11:45:01;;;;;;;1.48;0.90;;;;;;;20.27;51.08;99646.03;5033535;28;20120;-54
2022/10/05 11:48:13;;;;;;;2.70;1.05;;;;;;;20.42;51.17;99651.69;5052881;28;20509;-59
2022/10/05 11:51:18;;;;;;;2.70;1.10;;;;;;;20.29;51.77;99628.09;5043849;28;20139;-55
2022/10/05 11:54:16;;;;;;;2.65;1.17;;;;;;;19.98;51.94;99637.16;5043601;28;20128;-53
2022/10/05 11:57:17;;;;;;;1.77;0.98;;;;;;;19.87;53.02;99637.31;5048070;28;20127;-61
2022/10/05 12:00:19;;;;;;;2.53;1.30;;;;;;;19.58;53.84;99653.19;5050189;28;20068;-56
2022/10/05 12:03:31;;;;;;;4.25;1.48;;;;;;;19.61;54.03;99640.59;5043843;28;20545;-56
2022/10/05 12:06:24;;;;;;;2.65;1.23;;;;;;;19.13;55.01;99633.38;5037487;28;20053;-58
2022/10/05 12:13:15;;;;;;;1.80;0.98;;;;;;;18.98;55.95;99651.50;5037374;28;20041;-56
2022/10/05 12:16:05;;;;;;;3.25;1.35;;;;;;;18.98;55.98;99638.22;5120606;27;20036;-58
2022/10/05 12:18:52;;;;;;;2.72;1.30;;;;;;;19.21;55.62;99656.56;5116088;27;20118;-58
2022/10/05 12:21:45;;;;;;;3.42;1.45;;;;;;;18.89;56.32;99639.91;5101617;28;20122;-57
2022/10/05 12:24:35;;;;;;;3.35;1.10;;;;;;;19.07;56.05;99641.88;5099728;27;20479;-57
2022/10/05 12:27:26;;;;;;;2.35;1.10;;;;;;;19.15;56.05;99627.94;5100423;27;20035;-58
2022/10/05 12:30:13;;;;;;;1.73;0.90;;;;;;;19.46;54.47;99638.38;5109310;27;20051;-57
2022/10/05 12:33:31;;;;;;;2.85;1.17;;;;;;;19.27;55.01;99642.75;5094185;28;20044;-55
2022/10/05 12:36:30;;;;;;;3.22;1.17;;;;;;;19.18;55.56;99625.00;5048015;28;20488;-53
2022/10/05 12:39:50;;;;;;;3.33;1.00;;;;;;;18.98;56.07;99619.63;5038025;28;20144;-53
2022/10/05 12:42:53;;;;;;;3.22;1.20;;;;;;;18.91;56.50;99629.16;5051503;28;20092;-54
2022/10/05 12:45:58;;;;;;;4.05;1.30;;;;;;;18.82;56.18;99626.34;5056143;28;20132;-53
2022/10/05 12:49:17;;;;;;;2.17;1.13;;;;;;;18.61;57.33;99621.16;5050237;28;20462;-54
2022/10/05 12:52:05;;;;;;;2.03;1.10;;;;;;;18.49;57.77;99638.97;5035749;28;20381;-53
2022/10/05 12:55:07;;;;;;;3.63;1.42;;;;;;;18.51;58.24;99638.88;5064093;28;20388;-53
2022/10/05 12:58:30;;;;;;;6.45;1.45;;;;;;;18.55;58.09;99622.53;5049910;28;20128;-52
2022/10/05 13:01:20;;;;;;;1.80;1.10;;;;;;;18.68;57.89;99627.59;4988014;28;20154;-52
2022/10/05 13:04:26;;;;;;;2.25;1.10;;;;;;;18.39;57.54;99623.06;4987384;28;20136;-52
2022/10/05 13:07:22;;;;;;;5.60;1.10;;;;;;;18.33;58.98;99621.78;4988458;28;20052;-51
2022/10/05 13:10:28;;;;;;;2.75;1.20;;;;;;;18.41;57.77;99636.19;4996159;28;20078;-52
2022/10/05 13:13:34;;;;;;;1.85;1.00;;;;;;;18.62;58.04;99627.31;5043462;28;20051;-56
2022/10/05 13:16:30;;;;;;;4.97;1.02;;;;;;;18.40;58.11;99637.16;5062589;28;20068;-55
2022/10/05 13:19:27;;;;;;;3.50;1.27;;;;;;;18.34;58.21;99633.25;5063590;28;20037;-53
2022/10/05 13:22:35;;;;;;;2.13;1.00;;;;;;;18.12;58.80;99623.63;5073873;28;20062;-54
2022/10/05 13:25:28;;;;;;;5.28;1.15;;;;;;;18.15;58.77;99621.56;5061880;28;20036;-52
2022/10/05 13:28:20;;;;;;;5.40;1.23;;;;;;;18.08;59.62;99621.22;5054371;28;20048;-54
2022/10/05 13:31:43;;;;;;;3.92;0.90;;;;;;;17.94;60.13;99638.34;5053787;28;20065;-53
2022/10/05 13:34:53;;;;;;;2.65;0.90;;;;;;;17.81;59.77;99619.16;4979974;28;20148;-54
2022/10/05 13:38:08;;;;;;;2.35;1.15;;;;;;;17.89;60.16;99639.72;5048729;28;20462;-54
2022/10/05 13:41:10;;;;;;;3.20;1.00;;;;;;;17.94;59.70;99618.94;5051780;28;20554;-52
2022/10/05 13:44:17;;;;;;;1.83;1.15;;;;;;;17.95;59.65;99618.00;5040624;28;20052;-56
2022/10/05 13:47:16;;;;;;;4.47;1.02;;;;;;;18.01;60.21;99613.94;5055258;28;20124;-54
2022/10/05 13:50:18;;;;;;;2.83;1.08;;;;;;;17.85;60.17;99625.88;5045525;28;20048;-56
2022/10/05 13:53:18;;;;;;;3.97;1.00;;;;;;;17.77;60.64;99615.94;5039239;28;20039;-54
2022/10/05 13:56:11;;;;;;;2.92;0.95;;;;;;;17.78;60.45;99612.31;5057848;28;20041;-53
2022/10/05 13:59:10;;;;;;;4.68;1.30;;;;;;;17.76;60.18;99622.19;5049827;28;20072;-55
2022/10/05 14:02:17;;;;;;;4.38;1.10;;;;;;;17.75;60.08;99617.03;5034376;28;20355;-53
2022/10/05 14:05:15;;;;;;;2.38;1.10;;;;;;;17.78;60.08;99612.31;5044067;28;20049;-54
2022/10/05 14:08:02;;;;;;;5.43;1.20;;;;;;;17.76;60.44;99616.91;5042664;28;20061;-54
2022/10/05 14:10:47;;;;;;;2.10;1.05;;;;;;;17.72;60.26;99616.31;5065967;28;20068;-52
2022/10/05 14:13:45;;;;;;;3.50;1.13;;;;;;;17.82;60.51;99629.63;5096460;28;20059;-54
2022/10/05 14:16:32;;;;;;;3.17;1.05;;;;;;;17.75;59.89;99617.88;5117994;27;20099;-54
2022/10/05 14:19:25;;;;;;;2.95;1.20;;;;;;;17.72;60.74;99611.03;5109185;27;20411;-53